Hauptseite
METAR-TAF:

METAR-TAF

Flughäfen :

Flughafen Kos

Kos, Griechenland

Breite: 36-47N, Länge: 027-04E, Höhe: 129 m

Beobachtung

Neuester Wetterbericht von vor 36 Minuten, um 09:50 UTC
Wind 11 kt aus Nordwest
Temperatur 29°C
Luftfeuchtigkeit 40%
Luftdruck 1006 hPa
Sichtweite 10 km oder mehr
keine Wolken unter 1500 m und keine Kumulonimbus oder Gewitterwolken

METAR: LGKO 060950Z 31011KT CAVOK 29/14 Q1006

Zeit: 13:26 (10:26 UTC)

Prognose

Neuester Wetterbericht von vor 5 Stunden und 26 Minuten, um 05:00 UTC
Gültige Prognose vom 06 um 06 UTC bis 07 um 06 UTC
Wind 16 kt aus Nordwest
Sichtweite 10 km oder mehr
Leicht bewölkt in der Höhe von 2000 ft
Zeitweise
vom 06 um 12 UTC bis 06 um 18 UTC
Wind 16 kt aus Nord/Nordwest, Böen bis zu 26 kt

TAF: LGKO 060500Z 0606/0706 31016KT 9999 FEW020 TEMPO 0612/0618 33016G26KT

Wetterbeobachtungen und Prognosen von mehr als 4000 Flughäfen (METAR und TAF Bericht).

Die verfügbaren Stationen werden durch gelbe und rote Markierungen auf der Karte dargestellt.

Führen Sie die Maus auf sie, um den Namen der Station zu sehen.

Darauf klicken, um die Beobachtung von Wetterbeobachtungen und Prognosen zu sehen.

Um die Karte zu ändern : klicken Sie auf den grünen Tasten mit einem schwarzen Kreuz Zum Vergrößern, auf den grünen Button mit einem Gedankenstrich zu verkleinern, oder auf die grünen Pfeile für benachbarte Karten.


METAR-TAF: